createdAt,value
2022-12-31T00:01:13.954Z,100529.59
2022-12-31T00:03:42.750Z,100525.98
2022-12-31T00:06:23.177Z,100525.38
2022-12-31T00:08:56.162Z,100524.65
2022-12-31T00:11:26.338Z,100520.80
2022-12-31T00:13:55.339Z,100519.15
2022-12-31T00:16:29.914Z,100511.41
2022-12-31T00:18:59.886Z,100506.84
2022-12-31T00:21:32.247Z,100505.94
2022-12-31T00:24:00.907Z,100504.88
2022-12-31T00:26:30.806Z,100505.70
2022-12-31T00:29:00.614Z,100501.06
2022-12-31T00:31:33.326Z,100503.75
2022-12-31T00:34:01.441Z,100499.63
2022-12-31T00:36:32.808Z,100499.51
2022-12-31T00:39:02.189Z,100498.33
2022-12-31T00:41:30.621Z,100493.11
2022-12-31T00:43:59.397Z,100455.75
2022-12-31T00:46:27.424Z,100484.27
2022-12-31T00:48:55.493Z,100482.89
2022-12-31T00:51:27.517Z,100477.67
2022-12-31T00:53:58.594Z,100475.69
2022-12-31T00:56:29.639Z,100475.81
2022-12-31T00:58:59.268Z,100470.03
2022-12-31T01:01:30.771Z,100461.98
2022-12-31T01:04:07.397Z,100461.43
2022-12-31T01:06:35.844Z,100459.11
2022-12-31T01:09:05.163Z,100453.64
2022-12-31T01:11:33.307Z,100448.67
2022-12-31T01:14:11.039Z,100444.55
2022-12-31T01:16:42.968Z,100443.36
2022-12-31T01:19:13.999Z,100440.03
2022-12-31T01:21:43.629Z,100444.00
2022-12-31T01:24:13.771Z,100437.84
2022-12-31T01:26:42.692Z,100439.73
2022-12-31T01:29:11.737Z,100438.76
2022-12-31T01:31:41.020Z,100433.35
2022-12-31T01:34:09.147Z,100430.30
2022-12-31T01:36:38.452Z,100429.54
2022-12-31T01:39:08.601Z,100426.33
2022-12-31T01:41:42.979Z,100422.70
2022-12-31T01:44:13.720Z,100426.17
2022-12-31T01:46:48.523Z,100432.20
2022-12-31T01:49:26.296Z,100429.27
2022-12-31T01:52:01.335Z,100432.98
2022-12-31T01:54:35.484Z,100409.77
2022-12-31T01:57:05.354Z,100403.13
2022-12-31T01:59:34.195Z,100390.99
2022-12-31T02:02:03.142Z,100391.92
2022-12-31T02:04:31.614Z,100382.23
2022-12-31T02:07:07.218Z,100380.05
2022-12-31T02:09:39.457Z,100376.15
2022-12-31T02:12:09.689Z,100377.49
2022-12-31T02:14:42.704Z,100374.98
2022-12-31T02:17:24.467Z,100372.90
2022-12-31T02:20:11.250Z,100361.20
2022-12-31T02:23:11.632Z,100346.33
2022-12-31T02:26:06.533Z,100340.67
2022-12-31T02:28:57.476Z,100342.08
2022-12-31T02:31:45.400Z,100336.77
2022-12-31T02:34:24.549Z,100323.61
2022-12-31T02:36:55.237Z,100320.72
2022-12-31T02:39:23.421Z,100326.33
2022-12-31T02:41:52.428Z,100331.19
2022-12-31T02:44:34.390Z,100332.88
2022-12-31T02:47:05.316Z,100335.86
2022-12-31T02:49:52.547Z,100346.02
2022-12-31T02:52:51.352Z,100340.35
2022-12-31T02:55:33.061Z,100329.44
2022-12-31T02:58:13.071Z,100326.27
2022-12-31T03:01:12.935Z,100326.16
2022-12-31T03:03:41.833Z,100335.94
2022-12-31T03:06:11.678Z,100336.58
2022-12-31T03:09:02.927Z,100341.70
2022-12-31T03:11:49.776Z,100338.14
2022-12-31T03:14:17.704Z,100337.05
2022-12-31T03:16:45.823Z,100342.85
2022-12-31T03:19:32.374Z,100342.47
2022-12-31T03:22:19.884Z,100339.34
2022-12-31T03:25:06.472Z,100335.61
2022-12-31T03:27:34.600Z,100342.23
2022-12-31T03:30:02.523Z,100346.07
2022-12-31T03:32:30.517Z,100346.34
2022-12-31T03:34:58.679Z,100344.27
2022-12-31T03:37:26.634Z,100354.91
2022-12-31T03:39:54.549Z,100352.40
2022-12-31T03:42:23.148Z,100346.78
2022-12-31T03:44:51.187Z,100355.29
2022-12-31T03:47:19.104Z,100357.92
2022-12-31T03:49:47.399Z,100352.03
2022-12-31T03:52:15.284Z,100349.25
2022-12-31T03:54:43.242Z,100351.90
2022-12-31T03:57:11.712Z,100348.77
2022-12-31T03:59:39.690Z,100361.11
2022-12-31T04:02:07.787Z,100365.60
2022-12-31T04:04:36.032Z,100368.44
2022-12-31T04:07:04.134Z,100368.17
2022-12-31T04:09:32.167Z,100360.65
2022-12-31T04:12:00.341Z,100354.67
2022-12-31T04:14:29.528Z,100364.95
2022-12-31T04:16:57.669Z,100368.00
2022-12-31T04:19:25.797Z,100371.15
2022-12-31T04:21:53.672Z,100369.04
2022-12-31T04:24:21.726Z,100373.33
2022-12-31T04:26:50.403Z,100370.87
2022-12-31T04:29:18.480Z,100358.05
2022-12-31T04:31:47.130Z,100349.63
2022-12-31T04:34:15.153Z,100348.08
2022-12-31T04:36:43.034Z,100349.27
2022-12-31T04:39:11.133Z,100349.04
2022-12-31T04:41:39.181Z,100350.02
2022-12-31T04:44:07.230Z,100352.94
2022-12-31T04:46:35.362Z,100352.20
2022-12-31T04:49:03.422Z,100348.77
2022-12-31T04:51:31.825Z,100341.29
2022-12-31T04:53:59.998Z,100345.09
2022-12-31T04:56:28.700Z,100354.16
2022-12-31T04:58:56.723Z,100361.73
2022-12-31T05:01:25.248Z,100302.00
2022-12-31T05:03:53.552Z,100362.23
2022-12-31T05:06:23.874Z,100361.55
2022-12-31T05:08:51.954Z,100321.87
2022-12-31T05:11:20.017Z,100356.41
2022-12-31T05:13:48.397Z,100355.02
2022-12-31T05:16:16.693Z,100354.20
2022-12-31T05:18:45.017Z,100360.89
2022-12-31T05:21:18.439Z,100364.89
2022-12-31T05:23:47.041Z,100361.20
2022-12-31T05:26:15.484Z,100362.79
2022-12-31T05:28:43.479Z,100366.64
2022-12-31T05:31:11.703Z,100368.94
2022-12-31T05:33:39.706Z,100373.23
2022-12-31T05:36:07.915Z,100361.68
2022-12-31T05:38:37.627Z,100357.66
2022-12-31T05:41:08.202Z,100359.71
2022-12-31T05:43:36.262Z,100363.30
2022-12-31T05:46:04.970Z,100356.99
2022-12-31T05:48:35.530Z,100345.02
2022-12-31T05:51:03.625Z,100335.61
2022-12-31T05:53:31.610Z,100343.43
2022-12-31T05:55:59.551Z,100339.05
2022-12-31T05:58:27.601Z,100342.89
2022-12-31T06:00:55.842Z,100347.09
2022-12-31T06:03:23.814Z,100349.89
2022-12-31T06:05:52.081Z,100345.54
2022-12-31T06:08:20.603Z,100346.64
2022-12-31T06:10:48.646Z,100345.00
2022-12-31T06:13:16.638Z,100343.58
2022-12-31T06:15:44.827Z,100348.46
2022-12-31T06:18:13.125Z,100346.39
2022-12-31T06:20:41.021Z,100346.60
2022-12-31T06:23:09.133Z,100348.05
2022-12-31T06:25:37.248Z,100348.84
2022-12-31T06:28:05.875Z,100356.52
2022-12-31T06:30:34.132Z,100351.80
2022-12-31T06:33:02.097Z,100357.48
2022-12-31T06:35:30.049Z,100362.69
2022-12-31T06:37:58.173Z,100360.95
2022-12-31T06:40:26.301Z,100359.77
2022-12-31T06:42:59.688Z,100357.89
2022-12-31T06:45:28.630Z,100359.56
2022-12-31T06:47:56.578Z,100364.86
2022-12-31T06:50:24.531Z,100365.99
2022-12-31T06:52:52.588Z,100366.95
2022-12-31T06:55:20.908Z,100368.65
2022-12-31T06:57:49.072Z,100355.17
2022-12-31T07:00:17.786Z,100371.63
2022-12-31T07:03:06.929Z,100374.94
2022-12-31T07:06:23.289Z,100381.27
2022-12-31T07:09:04.679Z,100380.77
2022-12-31T07:11:44.768Z,100393.12
2022-12-31T07:14:40.673Z,100399.78
2022-12-31T07:17:29.186Z,100397.66
2022-12-31T07:20:05.437Z,100397.98
2022-12-31T07:22:33.783Z,100405.58
2022-12-31T07:25:02.171Z,100404.67
2022-12-31T07:27:53.017Z,100403.84
2022-12-31T07:30:34.104Z,100415.45
2022-12-31T07:33:26.213Z,100416.20
2022-12-31T07:36:25.362Z,100414.77
2022-12-31T07:38:56.605Z,100413.73
2022-12-31T07:41:49.669Z,100390.20
2022-12-31T07:44:43.183Z,100406.23
2022-12-31T07:47:28.342Z,100409.75
2022-12-31T07:49:57.805Z,100405.66
2022-12-31T07:52:26.502Z,100409.58
2022-12-31T07:54:54.568Z,100398.61
2022-12-31T07:57:28.443Z,100401.62
2022-12-31T08:00:12.236Z,100410.42
2022-12-31T08:03:07.656Z,100416.13
2022-12-31T08:05:57.643Z,100418.06
2022-12-31T08:08:49.257Z,100419.89
2022-12-31T08:11:49.022Z,100423.18
2022-12-31T08:14:18.953Z,100428.57
2022-12-31T08:16:47.672Z,100424.87
2022-12-31T08:19:35.996Z,100427.36
2022-12-31T08:22:10.761Z,100425.23
2022-12-31T08:24:53.892Z,100419.86
2022-12-31T08:27:34.269Z,100420.91
2022-12-31T08:30:10.106Z,100424.14
2022-12-31T08:32:44.986Z,100436.14
2022-12-31T08:35:36.946Z,100440.30
2022-12-31T08:38:31.000Z,100440.30
2022-12-31T08:41:11.260Z,100443.64
2022-12-31T08:43:44.881Z,100450.52
2022-12-31T08:46:42.278Z,100459.98
2022-12-31T08:49:10.718Z,100459.16
2022-12-31T08:51:41.512Z,100458.71
2022-12-31T08:54:15.449Z,100448.17
2022-12-31T08:56:51.147Z,100452.57
2022-12-31T08:59:34.781Z,100453.71
2022-12-31T09:02:35.408Z,100450.27
2022-12-31T09:05:26.663Z,100435.98
2022-12-31T09:08:15.875Z,100437.34
2022-12-31T09:10:54.451Z,100435.66
2022-12-31T09:14:04.725Z,100429.36
2022-12-31T09:16:53.841Z,100424.90
2022-12-31T09:19:22.161Z,100406.64
2022-12-31T09:21:54.669Z,100414.45
2022-12-31T09:24:25.141Z,100409.26
2022-12-31T09:27:22.463Z,100415.68
2022-12-31T09:30:16.663Z,100420.47
2022-12-31T09:33:12.541Z,100415.95
2022-12-31T09:35:55.530Z,100418.09
2022-12-31T09:38:30.079Z,100414.77
2022-12-31T09:41:24.071Z,100407.86
2022-12-31T09:44:30.435Z,100393.53
2022-12-31T09:47:11.266Z,100381.80
2022-12-31T09:49:48.288Z,100370.86
2022-12-31T09:52:19.304Z,100383.18
2022-12-31T09:54:54.183Z,100318.84
2022-12-31T09:57:51.339Z,100340.81
2022-12-31T10:00:33.379Z,100384.46
2022-12-31T10:03:52.974Z,100379.70
2022-12-31T10:06:43.537Z,100369.33
2022-12-31T10:09:33.351Z,100370.45
2022-12-31T10:12:23.616Z,100372.06
2022-12-31T10:15:04.195Z,100376.65
2022-12-31T10:17:41.294Z,100381.27
2022-12-31T10:20:28.874Z,100381.73
2022-12-31T10:23:03.338Z,100373.80
2022-12-31T10:25:56.049Z,100364.14
2022-12-31T10:28:55.009Z,100373.52
2022-12-31T10:31:32.080Z,100368.77
2022-12-31T10:34:14.699Z,100353.08
2022-12-31T10:36:52.668Z,100353.85
2022-12-31T10:39:41.831Z,100358.80
2022-12-31T10:42:41.590Z,100351.54
2022-12-31T10:45:46.474Z,100336.89
2022-12-31T10:48:34.604Z,100325.73
2022-12-31T10:51:27.198Z,100315.38
2022-12-31T10:54:14.547Z,100300.56
2022-12-31T10:56:45.338Z,100309.22
2022-12-31T10:59:22.576Z,100310.61
2022-12-31T11:02:09.259Z,100302.77
2022-12-31T11:05:08.654Z,100305.05
2022-12-31T11:07:58.214Z,100309.09
2022-12-31T11:10:32.177Z,100297.38
2022-12-31T11:13:22.047Z,100282.85
2022-12-31T11:15:53.215Z,100284.17
2022-12-31T11:18:39.253Z,100291.79
2022-12-31T11:21:28.716Z,100302.92
2022-12-31T11:24:10.195Z,100298.61
2022-12-31T11:26:41.267Z,100294.50
2022-12-31T11:29:32.848Z,100281.58
2022-12-31T11:32:27.815Z,100308.41
2022-12-31T11:35:15.725Z,100304.90
2022-12-31T11:37:55.954Z,100299.26
2022-12-31T11:40:54.032Z,100285.20
2022-12-31T11:43:39.659Z,100289.21
2022-12-31T11:46:20.967Z,100290.65
2022-12-31T11:49:13.615Z,100294.64
2022-12-31T11:52:16.013Z,100287.77
2022-12-31T11:55:24.334Z,100276.53
2022-12-31T11:57:53.261Z,100275.58
2022-12-31T12:00:28.250Z,100264.84
2022-12-31T12:03:03.672Z,100280.57
2022-12-31T12:05:35.228Z,100288.16
2022-12-31T12:08:03.450Z,100292.83
2022-12-31T12:10:57.351Z,100288.76
2022-12-31T12:13:28.090Z,100285.08
2022-12-31T12:16:02.852Z,100279.31
2022-12-31T12:18:47.583Z,100273.84
2022-12-31T12:21:24.165Z,100277.61
2022-12-31T12:24:04.484Z,100273.03
2022-12-31T12:26:39.045Z,100273.40
2022-12-31T12:29:22.171Z,100266.21
2022-12-31T12:31:59.342Z,100259.23
2022-12-31T12:34:34.664Z,100254.45
2022-12-31T12:37:04.485Z,100252.92
2022-12-31T12:39:34.563Z,100258.38
2022-12-31T12:42:21.453Z,100257.14
2022-12-31T12:45:01.013Z,100245.22
2022-12-31T12:47:29.111Z,100245.50
2022-12-31T12:49:57.217Z,100249.41
2022-12-31T12:52:31.370Z,100242.34
2022-12-31T12:55:18.241Z,100237.38
2022-12-31T12:58:07.917Z,100244.70
2022-12-31T13:00:50.280Z,100231.03
2022-12-31T13:04:32.050Z,100238.48
2022-12-31T13:06:53.696Z,100233.86
2022-12-31T13:10:05.452Z,100230.52
2022-12-31T13:13:22.248Z,100227.57
2022-12-31T13:15:44.815Z,100232.36
2022-12-31T13:18:23.407Z,100235.75
2022-12-31T13:21:00.979Z,100234.59
2022-12-31T13:23:48.838Z,100235.32
2022-12-31T13:26:28.148Z,100245.02
2022-12-31T13:28:58.628Z,100245.90
2022-12-31T13:31:39.356Z,100239.36
2022-12-31T13:34:14.680Z,100239.73
2022-12-31T13:36:46.054Z,100239.71
2022-12-31T13:39:36.317Z,100238.61
2022-12-31T13:42:20.867Z,100234.23
2022-12-31T13:44:56.335Z,100239.10
2022-12-31T13:47:39.455Z,100243.21
2022-12-31T13:50:42.668Z,100250.33
2022-12-31T13:53:27.153Z,100256.95
2022-12-31T13:56:02.202Z,100257.72
2022-12-31T13:58:43.802Z,100255.80
2022-12-31T14:02:02.124Z,100253.35
2022-12-31T14:04:50.621Z,100249.52
2022-12-31T14:07:27.818Z,100247.84
2022-12-31T14:09:59.499Z,100251.68
2022-12-31T14:12:39.795Z,100258.02
2022-12-31T14:15:33.052Z,100256.13
2022-12-31T14:18:40.912Z,100255.77
2022-12-31T14:21:39.534Z,100259.52
2022-12-31T14:24:18.552Z,100266.16
2022-12-31T14:26:52.466Z,100264.86
2022-12-31T14:29:26.535Z,100262.80
2022-12-31T14:32:20.729Z,100256.42
2022-12-31T14:34:49.838Z,100257.98
2022-12-31T14:37:30.437Z,100260.70
2022-12-31T14:40:24.946Z,100258.70
2022-12-31T14:43:11.430Z,100259.16
2022-12-31T14:45:58.340Z,100259.83
2022-12-31T14:48:51.856Z,100259.30
2022-12-31T14:51:19.967Z,100259.48
2022-12-31T14:53:57.000Z,100261.23
2022-12-31T14:56:40.765Z,100261.70
2022-12-31T14:59:33.393Z,100266.05
2022-12-31T15:02:26.411Z,100267.20
2022-12-31T15:05:10.354Z,100258.02
2022-12-31T15:07:47.298Z,100260.80
2022-12-31T15:10:21.491Z,100259.69
2022-12-31T15:12:59.267Z,100253.23
2022-12-31T15:15:33.028Z,100268.70
2022-12-31T15:18:01.203Z,100243.09
2022-12-31T15:20:48.653Z,100264.25
2022-12-31T15:23:25.581Z,100263.61
2022-12-31T15:25:59.934Z,100262.23
2022-12-31T15:28:35.568Z,100266.45
2022-12-31T15:31:18.956Z,100260.45
2022-12-31T15:33:58.471Z,100265.52
2022-12-31T15:36:33.183Z,100258.33
2022-12-31T15:39:36.437Z,100265.77
2022-12-31T15:42:38.637Z,100259.81
2022-12-31T15:45:17.439Z,100260.12
2022-12-31T15:48:01.983Z,100256.76
2022-12-31T15:50:31.049Z,100259.34
2022-12-31T15:53:02.806Z,100254.56
2022-12-31T15:55:41.714Z,100255.57
2022-12-31T15:58:16.694Z,100256.46
2022-12-31T16:01:19.389Z,100266.26
2022-12-31T16:04:01.037Z,100252.09
2022-12-31T16:06:31.841Z,100272.93
2022-12-31T16:09:00.054Z,100262.45
2022-12-31T16:11:30.844Z,100268.30
2022-12-31T16:13:59.935Z,100266.02
2022-12-31T16:16:31.652Z,100270.39
2022-12-31T16:19:01.320Z,100279.27
2022-12-31T16:21:32.918Z,100282.89
2022-12-31T16:24:04.247Z,100287.59
2022-12-31T16:26:54.145Z,100288.02
2022-12-31T16:29:24.290Z,100288.58
2022-12-31T16:31:54.118Z,100289.81
2022-12-31T16:34:24.916Z,100291.23
2022-12-31T16:37:01.926Z,100287.38
2022-12-31T16:39:34.168Z,100284.29
2022-12-31T16:42:08.709Z,100294.90
2022-12-31T16:44:36.797Z,100289.88
2022-12-31T16:47:07.371Z,100288.86
2022-12-31T16:49:38.983Z,100292.14
2022-12-31T16:52:28.077Z,100274.86
2022-12-31T16:54:57.217Z,100278.91
2022-12-31T16:57:30.211Z,100286.10
2022-12-31T17:00:02.740Z,100293.37
2022-12-31T17:02:38.338Z,100290.15
2022-12-31T17:05:22.359Z,100290.73
2022-12-31T17:07:51.057Z,100289.66
2022-12-31T17:10:32.612Z,100289.43
2022-12-31T17:15:55.421Z,100289.69
2022-12-31T17:18:34.330Z,100283.80
2022-12-31T17:21:10.933Z,100284.25
2022-12-31T17:23:41.512Z,100282.45
2022-12-31T17:26:22.190Z,100288.09
2022-12-31T17:28:52.041Z,100294.77
2022-12-31T17:31:31.080Z,100298.58
2022-12-31T17:34:20.956Z,100297.23
2022-12-31T17:37:09.447Z,100302.11
2022-12-31T17:39:47.721Z,100299.95
2022-12-31T17:42:25.152Z,100301.18
2022-12-31T17:45:21.391Z,100302.02
2022-12-31T17:47:53.801Z,100306.14
2022-12-31T17:50:24.949Z,100308.10
2022-12-31T17:52:57.620Z,100312.73
2022-12-31T17:55:26.571Z,100317.85
2022-12-31T17:57:57.260Z,100312.88
2022-12-31T18:00:27.085Z,100314.84
2022-12-31T18:02:55.327Z,100308.75
2022-12-31T18:05:24.879Z,100320.48
2022-12-31T18:07:52.985Z,100317.94
2022-12-31T18:10:24.047Z,100316.11
2022-12-31T18:12:52.627Z,100321.47
2022-12-31T18:15:22.764Z,100323.56
2022-12-31T18:17:51.247Z,100328.79
2022-12-31T18:20:19.429Z,100331.23
2022-12-31T18:22:47.567Z,100332.27
2022-12-31T18:25:24.057Z,100331.33
2022-12-31T18:27:52.024Z,100334.52
2022-12-31T18:30:20.413Z,100332.59
2022-12-31T18:32:48.711Z,100326.45
2022-12-31T18:38:15.354Z,100320.09
2022-12-31T18:40:48.628Z,100317.30
2022-12-31T18:43:18.819Z,100329.05
2022-12-31T18:45:47.644Z,100332.59
2022-12-31T18:48:16.111Z,100331.43
2022-12-31T18:50:45.437Z,100322.83
2022-12-31T18:53:21.678Z,100317.98
2022-12-31T18:55:55.674Z,100331.66
2022-12-31T18:58:24.231Z,100327.39
2022-12-31T19:00:52.634Z,100331.40
2022-12-31T19:03:23.519Z,100330.08
2022-12-31T19:05:52.070Z,100333.65
2022-12-31T19:08:22.607Z,100337.77
2022-12-31T19:10:52.041Z,100341.65
2022-12-31T19:13:20.443Z,100343.35
2022-12-31T19:15:51.404Z,100342.16
2022-12-31T19:18:19.380Z,100342.75
2022-12-31T19:20:47.944Z,100352.92
2022-12-31T19:23:18.387Z,100359.73
2022-12-31T19:25:47.988Z,100358.10
2022-12-31T19:28:21.677Z,100360.05
2022-12-31T19:30:50.271Z,100357.59
2022-12-31T19:33:18.658Z,100355.86
2022-12-31T19:35:47.780Z,100361.09
2022-12-31T19:38:18.552Z,100364.70
2022-12-31T19:40:47.782Z,100364.52
2022-12-31T19:43:17.768Z,100367.96
2022-12-31T19:45:46.703Z,100375.02
2022-12-31T19:48:21.687Z,100367.35
2022-12-31T19:50:53.914Z,100362.66
2022-12-31T19:53:25.276Z,100357.41
2022-12-31T19:55:53.584Z,100361.42
2022-12-31T19:58:27.392Z,100366.70
2022-12-31T20:01:02.492Z,100366.89
2022-12-31T20:03:32.988Z,100364.59
2022-12-31T20:06:07.206Z,100367.88
2022-12-31T20:08:37.257Z,100372.02
2022-12-31T20:11:14.169Z,100368.48
2022-12-31T20:13:42.446Z,100368.83
2022-12-31T20:16:17.286Z,100359.90
2022-12-31T20:18:47.502Z,100355.40
2022-12-31T20:21:21.405Z,100344.61
2022-12-31T20:23:51.040Z,100340.89
2022-12-31T20:26:20.730Z,100341.00
2022-12-31T20:28:51.282Z,100343.36
2022-12-31T20:31:23.717Z,100348.91
2022-12-31T20:33:53.683Z,100350.52
2022-12-31T20:36:22.646Z,100353.21
2022-12-31T20:38:50.711Z,100354.41
2022-12-31T20:41:21.683Z,100363.95
2022-12-31T20:43:49.813Z,100368.85
2022-12-31T20:46:24.859Z,100372.30
2022-12-31T20:48:55.479Z,100367.23
2022-12-31T20:51:24.423Z,100371.93
2022-12-31T20:53:57.752Z,100374.36
2022-12-31T20:56:27.919Z,100380.40
2022-12-31T20:58:56.672Z,100381.96
2022-12-31T21:01:25.639Z,100381.99
2022-12-31T21:04:05.272Z,100377.34
2022-12-31T21:06:35.461Z,100372.23
2022-12-31T21:09:07.223Z,100371.96
2022-12-31T21:11:54.442Z,100376.55
2022-12-31T21:14:22.684Z,100374.41
2022-12-31T21:16:50.827Z,100382.07
2022-12-31T21:19:18.782Z,100383.73
2022-12-31T21:21:48.372Z,100376.54
2022-12-31T21:24:23.239Z,100375.75
2022-12-31T21:26:55.338Z,100375.41
2022-12-31T21:29:23.637Z,100374.18
2022-12-31T21:31:51.540Z,100376.01
2022-12-31T21:34:19.677Z,100372.27
2022-12-31T21:36:47.592Z,100370.09
2022-12-31T21:39:15.573Z,100368.08
2022-12-31T21:41:53.022Z,100374.48
2022-12-31T21:44:23.655Z,100380.02
2022-12-31T21:47:39.733Z,100381.86
2022-12-31T21:50:08.988Z,100382.67
2022-12-31T21:52:37.249Z,100379.89
2022-12-31T21:55:25.227Z,100381.41
2022-12-31T21:58:25.283Z,100374.88
2022-12-31T22:01:00.080Z,100375.08
2022-12-31T22:03:28.816Z,100375.03
2022-12-31T22:06:01.961Z,100369.78
2022-12-31T22:08:31.489Z,100355.74
2022-12-31T22:10:59.421Z,100370.20
2022-12-31T22:13:27.542Z,100368.80
2022-12-31T22:16:04.282Z,100371.11
2022-12-31T22:18:38.915Z,100367.88
2022-12-31T22:21:21.869Z,100366.83
2022-12-31T22:23:52.368Z,100372.02
2022-12-31T22:26:23.817Z,100371.40
2022-12-31T22:28:52.642Z,100372.22
2022-12-31T22:31:24.647Z,100367.86
2022-12-31T22:33:53.628Z,100368.84
2022-12-31T22:36:23.096Z,100364.11
2022-12-31T22:38:55.558Z,100355.61
2022-12-31T22:41:25.265Z,100359.35
2022-12-31T22:44:02.582Z,100359.36
2022-12-31T22:46:32.392Z,100363.92
2022-12-31T22:49:03.088Z,100370.67
2022-12-31T22:51:56.361Z,100376.56
2022-12-31T22:54:20.440Z,100382.37
2022-12-31T22:56:48.409Z,100373.81
2022-12-31T22:59:16.479Z,100374.78
2022-12-31T23:01:44.717Z,100375.81
2022-12-31T23:04:12.888Z,100375.50
2022-12-31T23:06:43.819Z,100369.55
2022-12-31T23:09:35.416Z,100367.63
2022-12-31T23:12:06.006Z,100379.56
2022-12-31T23:14:53.114Z,100388.73
2022-12-31T23:17:42.572Z,100386.12
2022-12-31T23:20:41.222Z,100380.02
2022-12-31T23:23:15.576Z,100361.29
2022-12-31T23:25:47.949Z,100364.88
2022-12-31T23:28:20.001Z,100341.73
2022-12-31T23:30:48.826Z,100345.36
2022-12-31T23:33:19.774Z,100361.17
2022-12-31T23:35:47.894Z,100370.41
2022-12-31T23:38:17.804Z,100375.23
2022-12-31T23:40:46.119Z,100380.75
2022-12-31T23:43:22.533Z,100375.56
2022-12-31T23:45:51.297Z,100368.61
2022-12-31T23:48:19.279Z,100362.83
2022-12-31T23:50:54.009Z,100360.56
2022-12-31T23:53:24.027Z,100362.23
2022-12-31T23:55:52.813Z,100371.48
2022-12-31T23:58:21.311Z,100372.45
